Time;durP1;ratioP1;P1;durP2;ratioP2;P2;SDS_P1;SDS_P2;PMS_P1;PMS_P2;Temp;Humidity;BMP_temperature;BMP_pressure;BME280_temperature;BME280_humidity;BME280_pressure;Samples;Min_cycle;Max_cycle;Signal;HPM_P1;HPM_P2
2024/03/14 00:00:44;;;;;;;;;;;;;;;;;;4990602;28;19917;-70
2024/03/14 00:03:10;;;;;;;;;;;;;;;;;;4987566;28;20372;-68
2024/03/14 00:05:35;;;;;;;;;;;;;;;;;;5008525;28;19921;-69
2024/03/14 00:08:00;;;;;;;;;;;;;;;;;;4991040;28;20018;-69
2024/03/14 00:10:31;;;;;;;;;;;;;;;;;;4973606;28;19922;-69
2024/03/14 00:12:57;;;;;;;;;;;;;;;;;;5007218;28;20245;-71
2024/03/14 00:15:24;;;;;;;;;;;;;;;;;;5007054;28;19921;-71
2024/03/14 00:17:50;;;;;;;;;;;;;;;;;;5006876;28;20006;-70
2024/03/14 00:20:15;;;;;;;;;;;;;;;;;;5008419;28;19952;-70
2024/03/14 00:22:41;;;;;;;;;;;;;;;;;;5006660;28;19951;-70
2024/03/14 00:25:09;;;;;;;;;;;;;;;;;;4987618;28;20032;-71
2024/03/14 00:27:37;;;;;;;;;;;;;;;;;;4992050;28;19918;-70
2024/03/14 00:30:03;;;;;;;;;;;;;;;;;;4994341;28;20415;-70
2024/03/14 00:32:34;;;;;;;;;;;;;;;;;;5007609;28;19921;-70
2024/03/14 00:35:01;;;;;;;;;;;;;;;;;;5009039;28;19928;-70
2024/03/14 00:37:27;;;;;;;;;;;;;;;;;;4987487;28;19970;-72
2024/03/14 00:39:53;;;;;;;;;;;;;;;;;;5002186;28;19922;-72
2024/03/14 00:42:18;;;;;;;;;;;;;;;;;;5008055;28;20345;-71
2024/03/14 00:44:44;;;;;;;;;;;;;;;;;;4985756;28;20340;-71
2024/03/14 00:47:09;;;;;;;;;;;;;;;;;;5007885;28;20558;-70
2024/03/14 00:49:34;;;;;;;;;;;;;;;;;;4992075;28;19927;-71
2024/03/14 00:52:00;;;;;;;;;;;;;;;;;;5008654;28;20459;-70
2024/03/14 00:54:25;;;;;;;;;;;;;;;;;;5007898;28;20435;-70
2024/03/14 00:56:52;;;;;;;;;;;;;;;;;;5007024;28;19924;-71
2024/03/14 00:59:17;;;;;;;;;;;;;;;;;;5007893;28;20439;-70
2024/03/14 01:01:44;;;;;;;;;;;;;;;;;;4988225;28;19990;-70
2024/03/14 01:04:10;;;;;;;;;;;;;;;;;;4985054;28;19920;-70
2024/03/14 01:06:38;;;;;;;;;;;;;;;;;;4978472;28;20331;-70
2024/03/14 01:09:04;;;;;;;;;;;;;;;;;;4983877;28;20043;-69
2024/03/14 01:11:29;;;;;;;;;;;;;;;;;;5007544;28;19921;-69
2024/03/14 01:13:54;;;;;;;;;;;;;;;;;;5007657;28;20385;-70
2024/03/14 01:16:20;;;;;;;;;;;;;;;;;;5005536;28;20016;-69
2024/03/14 01:18:50;;;;;;;;;;;;;;;;;;4963886;28;19926;-71
2024/03/14 01:21:15;;;;;;;;;;;;;;;;;;4992894;28;19964;-69
2024/03/14 01:23:40;;;;;;;;;;;;;;;;;;5008405;28;20044;-70
2024/03/14 01:29:22;;;;;;;;;;;;;;;;;;5008785;28;21573;-70
2024/03/14 01:31:47;;;;;;;;;;;;;;;;;;4990786;28;20025;-70
2024/03/14 01:34:13;;;;;;;;;;;;;;;;;;5004573;28;19972;-70
2024/03/14 01:36:41;;;;;;;;;;;;;;;;;;4996313;28;20469;-72
2024/03/14 01:39:09;;;;;;;;;;;;;;;;;;5002210;28;20737;-69
2024/03/14 01:41:35;;;;;;;;;;;;;;;;;;5008226;28;19928;-71
2024/03/14 01:44:00;;;;;;;;;;;;;;;;;;5007337;28;19925;-69
2024/03/14 01:46:29;;;;;;;;;;;;;;;;;;4988016;28;20771;-71
2024/03/14 01:48:55;;;;;;;;;;;;;;;;;;5008852;28;21511;-71
2024/03/14 01:51:20;;;;;;;;;;;;;;;;;;4986486;28;19917;-69
2024/03/14 01:53:45;;;;;;;;;;;;;;;;;;5007248;28;20323;-68
2024/03/14 01:56:11;;;;;;;;;;;;;;;;;;5004544;28;21592;-70
2024/03/14 01:58:40;;;;;;;;;;;;;;;;;;5009687;28;20290;-70
2024/03/14 02:01:05;;;;;;;;;;;;;;;;;;4985413;28;19921;-70
2024/03/14 02:03:30;;;;;;;;;;;;;;;;;;4991154;28;19922;-70
2024/03/14 02:05:56;;;;;;;;;;;;;;;;;;5006573;28;19921;-70
2024/03/14 02:08:21;;;;;;;;;;;;;;;;;;4986013;28;19960;-69
2024/03/14 02:10:47;;;;;;;;;;;;;;;;;;5004332;28;20396;-70
2024/03/14 02:13:12;;;;;;;;;;;;;;;;;;4986683;28;20427;-69
2024/03/14 02:15:38;;;;;;;;;;;;;;;;;;4987928;28;19921;-70
2024/03/14 02:18:07;;;;;;;;;;;;;;;;;;4989468;28;19936;-70
2024/03/14 02:20:32;;;;;;;;;;;;;;;;;;5008007;28;21470;-70
2024/03/14 02:22:58;;;;;;;;;;;;;;;;;;4992370;28;19925;-70
2024/03/14 02:25:25;;;;;;;;;;;;;;;;;;4989228;28;20099;-70
2024/03/14 02:27:50;;;;;;;;;;;;;;;;;;5013512;28;20626;-70
2024/03/14 02:30:17;;;;;;;;;;;;;;;;;;5014601;28;19921;-71
2024/03/14 02:32:43;;;;;;;;;;;;;;;;;;5011290;28;19921;-69
2024/03/14 02:35:09;;;;;;;;;;;;;;;;;;4989022;28;20280;-69
2024/03/14 02:37:34;;;;;;;;;;;;;;;;;;4987449;28;20774;-69
2024/03/14 02:40:00;;;;;;;;;;;;;;;;;;4987745;28;19921;-70
2024/03/14 02:42:25;;;;;;;;;;;;;;;;;;4992379;28;20024;-71
2024/03/14 02:44:50;;;;;;;;;;;;;;;;;;5010329;28;20012;-70
2024/03/14 02:47:17;;;;;;;;;;;;;;;;;;5010260;28;20250;-70
2024/03/14 02:49:42;;;;;;;;;;;;;;;;;;5011474;28;19932;-70
2024/03/14 02:52:08;;;;;;;;;;;;;;;;;;5010133;28;19936;-70
2024/03/14 02:54:33;;;;;;;;;;;;;;;;;;4992934;28;19986;-69
2024/03/14 02:56:59;;;;;;;;;;;;;;;;;;4987579;28;20184;-70
2024/03/14 02:59:24;;;;;;;;;;;;;;;;;;5011506;28;19967;-70
2024/03/14 03:01:50;;;;;;;;;;;;;;;;;;5009577;28;20388;-71
2024/03/14 03:04:15;;;;;;;;;;;;;;;;;;4995340;28;19921;-69
2024/03/14 03:06:54;;;;;;;;;;;;;;;;;;4990872;28;19923;-70
2024/03/14 03:09:23;;;;;;;;;;;;;;;;;;4991739;28;19972;-71
2024/03/14 03:11:48;;;;;;;;;;;;;;;;;;5010720;28;20026;-70
2024/03/14 03:14:13;;;;;;;;;;;;;;;;;;4989920;28;19967;-69
2024/03/14 03:16:39;;;;;;;;;;;;;;;;;;5008796;28;19921;-70
2024/03/14 03:19:09;;;;;;;;;;;;;;;;;;5008708;28;20466;-70
2024/03/14 03:21:37;;;;;;;;;;;;;;;;;;5008957;28;19956;-70
2024/03/14 03:24:03;;;;;;;;;;;;;;;;;;5010360;28;19920;-69
2024/03/14 03:26:28;;;;;;;;;;;;;;;;;;4992278;28;19999;-70
2024/03/14 03:28:54;;;;;;;;;;;;;;;;;;4990047;28;20000;-71
2024/03/14 03:31:20;;;;;;;;;;;;;;;;;;4992396;28;19921;-70
2024/03/14 03:33:46;;;;;;;;;;;;;;;;;;5005552;28;19971;-71
2024/03/14 03:36:11;;;;;;;;;;;;;;;;;;5008218;28;19922;-71
2024/03/14 03:38:37;;;;;;;;;;;;;;;;;;4990403;28;19925;-71
2024/03/14 03:41:02;;;;;;;;;;;;;;;;;;4993171;28;19928;-72
2024/03/14 03:43:28;;;;;;;;;;;;;;;;;;5009031;28;20356;-72
2024/03/14 03:45:57;;;;;;;;;;;;;;;;;;4991203;28;19924;-71
2024/03/14 03:48:22;;;;;;;;;;;;;;;;;;4990446;28;19931;-70
2024/03/14 03:50:48;;;;;;;;;;;;;;;;;;5008856;28;19922;-71
2024/03/14 03:53:14;;;;;;;;;;;;;;;;;;4990064;28;19924;-70
2024/03/14 03:55:39;;;;;;;;;;;;;;;;;;4988723;28;19921;-70
2024/03/14 03:58:06;;;;;;;;;;;;;;;;;;5008459;28;19917;-72
2024/03/14 04:00:42;;;;;;;;;;;;;;;;;;4988529;28;19987;-71
2024/03/14 04:03:14;;;;;;;;;;;;;;;;;;4990382;28;20016;-72
2024/03/14 04:05:40;;;;;;;;;;;;;;;;;;5007203;28;19921;-72
2024/03/14 04:08:05;;;;;;;;;;;;;;;;;;5010534;28;19922;-74
2024/03/14 04:10:31;;;;;;;;;;;;;;;;;;5008772;28;20408;-71
2024/03/14 04:12:56;;;;;;;;;;;;;;;;;;4991861;28;20356;-71
2024/03/14 04:15:22;;;;;;;;;;;;;;;;;;4993010;28;21210;-72
2024/03/14 04:17:48;;;;;;;;;;;;;;;;;;4977988;28;19925;-71
2024/03/14 04:20:13;;;;;;;;;;;;;;;;;;4992708;28;19917;-71
2024/03/14 04:22:42;;;;;;;;;;;;;;;;;;5010756;28;19952;-71
2024/03/14 04:25:11;;;;;;;;;;;;;;;;;;4996917;28;19921;-71
2024/03/14 04:27:36;;;;;;;;;;;;;;;;;;4987561;28;19939;-72
2024/03/14 04:30:01;;;;;;;;;;;;;;;;;;5008985;28;20384;-70
2024/03/14 04:32:27;;;;;;;;;;;;;;;;;;4986938;28;19943;-71
2024/03/14 04:34:53;;;;;;;;;;;;;;;;;;5010516;28;19921;-70
2024/03/14 04:37:18;;;;;;;;;;;;;;;;;;4987549;28;19921;-72
2024/03/14 04:39:44;;;;;;;;;;;;;;;;;;5007997;28;20320;-70
2024/03/14 04:42:10;;;;;;;;;;;;;;;;;;4986859;28;20276;-72
2024/03/14 04:44:35;;;;;;;;;;;;;;;;;;5010273;28;20008;-70
2024/03/14 04:47:03;;;;;;;;;;;;;;;;;;4992787;28;20049;-72
2024/03/14 04:49:28;;;;;;;;;;;;;;;;;;4994778;28;20022;-71
2024/03/14 04:51:54;;;;;;;;;;;;;;;;;;5009205;28;20624;-71
2024/03/14 04:54:20;;;;;;;;;;;;;;;;;;5012172;28;19917;-72
2024/03/14 04:56:45;;;;;;;;;;;;;;;;;;5008810;28;19912;-71
2024/03/14 04:59:12;;;;;;;;;;;;;;;;;;4987726;28;20404;-71
2024/03/14 05:01:38;;;;;;;;;;;;;;;;;;5011535;28;19925;-71
2024/03/14 05:04:06;;;;;;;;;;;;;;;;;;4985806;28;20383;-71
2024/03/14 05:06:34;;;;;;;;;;;;;;;;;;4989375;28;19979;-71
2024/03/14 05:09:00;;;;;;;;;;;;;;;;;;4986738;28;19929;-70
2024/03/14 05:11:25;;;;;;;;;;;;;;;;;;4991929;28;19940;-72
2024/03/14 05:13:56;;;;;;;;;;;;;;;;;;5007407;28;21761;-71
2024/03/14 05:16:22;;;;;;;;;;;;;;;;;;5010138;28;19921;-70
2024/03/14 05:18:47;;;;;;;;;;;;;;;;;;4974584;28;19921;-70
2024/03/14 05:21:13;;;;;;;;;;;;;;;;;;5008247;28;19972;-72
2024/03/14 05:23:41;;;;;;;;;;;;;;;;;;4969625;28;19952;-70
2024/03/14 05:26:07;;;;;;;;;;;;;;;;;;5010522;28;19996;-72
2024/03/14 05:28:32;;;;;;;;;;;;;;;;;;4986596;28;19925;-72
2024/03/14 05:30:57;;;;;;;;;;;;;;;;;;4994485;28;19921;-71
2024/03/14 05:33:23;;;;;;;;;;;;;;;;;;5009749;28;20126;-71
2024/03/14 05:35:49;;;;;;;;;;;;;;;;;;4991961;28;19921;-71
2024/03/14 05:38:15;;;;;;;;;;;;;;;;;;5009257;28;21584;-71
2024/03/14 05:40:40;;;;;;;;;;;;;;;;;;4990905;28;20273;-71
2024/03/14 05:43:05;;;;;;;;;;;;;;;;;;4987035;28;20115;-72
2024/03/14 05:45:35;;;;;;;;;;;;;;;;;;4987763;28;20375;-72
2024/03/14 05:48:00;;;;;;;;;;;;;;;;;;4988567;28;19921;-71
2024/03/14 05:50:26;;;;;;;;;;;;;;;;;;5007951;28;20076;-71
2024/03/14 05:52:52;;;;;;;;;;;;;;;;;;5014680;28;19927;-71
2024/03/14 05:55:17;;;;;;;;;;;;;;;;;;4991386;28;19933;-70
2024/03/14 05:57:43;;;;;;;;;;;;;;;;;;5013725;28;19940;-71
2024/03/14 06:00:11;;;;;;;;;;;;;;;;;;4990190;28;19921;-71
2024/03/14 06:02:36;;;;;;;;;;;;;;;;;;4972376;28;20797;-70
2024/03/14 06:05:03;;;;;;;;;;;;;;;;;;5012624;28;20454;-71
2024/03/14 06:07:28;;;;;;;;;;;;;;;;;;4993587;28;19967;-71
2024/03/14 06:09:54;;;;;;;;;;;;;;;;;;4979118;28;19929;-71
2024/03/14 06:12:19;;;;;;;;;;;;;;;;;;4994304;28;19917;-71
2024/03/14 06:14:45;;;;;;;;;;;;;;;;;;5009840;28;20931;-71
2024/03/14 06:17:12;;;;;;;;;;;;;;;;;;4983368;28;19925;-71
2024/03/14 06:19:38;;;;;;;;;;;;;;;;;;5012669;28;20348;-70
2024/03/14 06:22:06;;;;;;;;;;;;;;;;;;5012652;28;19917;-71
2024/03/14 06:24:31;;;;;;;;;;;;;;;;;;4991565;28;19948;-71
2024/03/14 06:26:57;;;;;;;;;;;;;;;;;;5012628;28;20656;-70
2024/03/14 06:29:22;;;;;;;;;;;;;;;;;;4989837;28;19980;-71
2024/03/14 06:31:49;;;;;;;;;;;;;;;;;;4996350;28;19921;-70
2024/03/14 06:34:15;;;;;;;;;;;;;;;;;;5013020;28;19917;-70
2024/03/14 06:36:41;;;;;;;;;;;;;;;;;;4994337;28;19925;-70
2024/03/14 06:39:07;;;;;;;;;;;;;;;;;;5011403;28;20003;-71
2024/03/14 06:41:33;;;;;;;;;;;;;;;;;;5012587;28;20012;-70
2024/03/14 06:43:58;;;;;;;;;;;;;;;;;;4997484;28;19925;-71
2024/03/14 06:46:26;;;;;;;;;;;;;;;;;;4993021;28;19925;-72
2024/03/14 06:48:53;;;;;;;;;;;;;;;;;;5010964;28;19972;-70
2024/03/14 06:51:19;;;;;;;;;;;;;;;;;;5011678;28;19960;-71
2024/03/14 06:53:45;;;;;;;;;;;;;;;;;;4990316;28;20053;-70
2024/03/14 06:56:13;;;;;;;;;;;;;;;;;;4993016;28;19924;-71
2024/03/14 06:58:38;;;;;;;;;;;;;;;;;;4997651;28;20363;-71
2024/03/14 07:01:04;;;;;;;;;;;;;;;;;;4977241;28;19932;-71
2024/03/14 07:03:30;;;;;;;;;;;;;;;;;;4982458;28;19933;-71
2024/03/14 07:05:57;;;;;;;;;;;;;;;;;;5012276;28;20011;-71
2024/03/14 07:08:26;;;;;;;;;;;;;;;;;;5012675;28;19932;-71
2024/03/14 07:10:52;;;;;;;;;;;;;;;;;;4994686;28;19952;-70
2024/03/14 07:13:20;;;;;;;;;;;;;;;;;;5013620;28;19913;-71
2024/03/14 07:15:47;;;;;;;;;;;;;;;;;;4977762;28;19921;-72
2024/03/14 07:18:13;;;;;;;;;;;;;;;;;;5012208;28;19957;-72
2024/03/14 07:20:43;;;;;;;;;;;;;;;;;;4988761;28;20051;-71
2024/03/14 07:23:08;;;;;;;;;;;;;;;;;;5012859;28;20069;-72
2024/03/14 07:25:34;;;;;;;;;;;;;;;;;;4989527;28;19925;-70
2024/03/14 07:28:00;;;;;;;;;;;;;;;;;;4995757;28;19917;-71
2024/03/14 07:30:25;;;;;;;;;;;;;;;;;;4990626;28;20288;-70
2024/03/14 07:32:52;;;;;;;;;;;;;;;;;;4989637;28;19992;-70
2024/03/14 07:35:21;;;;;;;;;;;;;;;;;;5010695;28;20474;-70
2024/03/14 07:37:47;;;;;;;;;;;;;;;;;;5007244;28;19943;-70
2024/03/14 07:40:12;;;;;;;;;;;;;;;;;;4995824;28;20447;-70
2024/03/14 07:42:39;;;;;;;;;;;;;;;;;;4989692;28;19925;-70
2024/03/14 07:45:05;;;;;;;;;;;;;;;;;;5013614;28;19925;-70
2024/03/14 07:47:30;;;;;;;;;;;;;;;;;;5011098;28;19939;-70
2024/03/14 07:49:55;;;;;;;;;;;;;;;;;;5010878;28;20375;-71
2024/03/14 07:52:22;;;;;;;;;;;;;;;;;;5010105;28;19927;-70
2024/03/14 07:54:49;;;;;;;;;;;;;;;;;;5012261;28;19917;-70
2024/03/14 07:57:15;;;;;;;;;;;;;;;;;;5013013;28;19917;-71
2024/03/14 07:59:41;;;;;;;;;;;;;;;;;;4974166;28;20160;-71
2024/03/14 08:02:12;;;;;;;;;;;;;;;;;;4988866;28;20544;-70
2024/03/14 08:04:37;;;;;;;;;;;;;;;;;;4987617;28;20368;-69
2024/03/14 08:07:17;;;;;;;;;;;;;;;;;;5011530;28;19936;-70
2024/03/14 08:09:43;;;;;;;;;;;;;;;;;;5010186;28;19926;-70
2024/03/14 08:12:09;;;;;;;;;;;;;;;;;;5012737;28;19930;-70
2024/03/14 08:14:34;;;;;;;;;;;;;;;;;;4992666;28;19920;-70
2024/03/14 08:17:00;;;;;;;;;;;;;;;;;;5011863;28;19968;-71
2024/03/14 08:19:25;;;;;;;;;;;;;;;;;;5011444;28;19921;-71
2024/03/14 08:21:50;;;;;;;;;;;;;;;;;;5011584;28;20502;-70
2024/03/14 08:24:16;;;;;;;;;;;;;;;;;;4970553;28;20234;-70
2024/03/14 08:26:42;;;;;;;;;;;;;;;;;;4989001;28;19917;-70
2024/03/14 08:29:07;;;;;;;;;;;;;;;;;;4989815;28;19925;-70
2024/03/14 08:31:32;;;;;;;;;;;;;;;;;;4988296;28;20007;-70
2024/03/14 08:33:58;;;;;;;;;;;;;;;;;;4992182;28;20176;-70
2024/03/14 08:36:24;;;;;;;;;;;;;;;;;;5005035;28;20376;-72
2024/03/14 08:38:49;;;;;;;;;;;;;;;;;;5009733;28;20403;-70
2024/03/14 08:41:14;;;;;;;;;;;;;;;;;;5009911;28;19980;-70
2024/03/14 08:43:40;;;;;;;;;;;;;;;;;;4994263;28;19933;-70
2024/03/14 08:46:07;;;;;;;;;;;;;;;;;;5011064;28;19953;-71
2024/03/14 08:48:33;;;;;;;;;;;;;;;;;;5013016;28;19924;-69
2024/03/14 08:50:59;;;;;;;;;;;;;;;;;;4988334;28;19920;-69
2024/03/14 08:53:30;;;;;;;;;;;;;;;;;;4995694;28;19933;-69
2024/03/14 08:55:55;;;;;;;;;;;;;;;;;;5012332;28;20048;-69
2024/03/14 08:58:21;;;;;;;;;;;;;;;;;;4995058;28;19945;-69
2024/03/14 09:00:47;;;;;;;;;;;;;;;;;;4979868;28;20128;-70
2024/03/14 09:03:15;;;;;;;;;;;;;;;;;;4989055;28;20020;-69
2024/03/14 09:05:41;;;;;;;;;;;;;;;;;;5009344;28;19928;-70
2024/03/14 09:08:07;;;;;;;;;;;;;;;;;;5010683;28;19925;-69
2024/03/14 09:10:34;;;;;;;;;;;;;;;;;;5011428;28;20473;-69
2024/03/14 09:12:59;;;;;;;;;;;;;;;;;;5011738;28;19918;-69
2024/03/14 09:15:25;;;;;;;;;;;;;;;;;;4987258;28;20376;-70
2024/03/14 09:17:53;;;;;;;;;;;;;;;;;;5009447;28;19921;-69
2024/03/14 09:20:21;;;;;;;;;;;;;;;;;;4986862;28;19967;-69
2024/03/14 09:22:53;;;;;;;;;;;;;;;;;;5009679;28;19991;-68
2024/03/14 09:25:19;;;;;;;;;;;;;;;;;;4991287;28;19929;-68
2024/03/14 09:27:44;;;;;;;;;;;;;;;;;;4988546;28;19952;-67
2024/03/14 09:30:09;;;;;;;;;;;;;;;;;;5008549;28;19914;-69
2024/03/14 09:32:35;;;;;;;;;;;;;;;;;;4988446;28;19920;-69
2024/03/14 09:35:01;;;;;;;;;;;;;;;;;;5009805;28;21412;-70
2024/03/14 09:37:27;;;;;;;;;;;;;;;;;;4992443;28;19976;-71
2024/03/14 09:39:53;;;;;;;;;;;;;;;;;;4993861;28;19938;-68
2024/03/14 09:42:20;;;;;;;;;;;;;;;;;;4986952;28;19922;-70
2024/03/14 09:44:48;;;;;;;;;;;;;;;;;;4992913;28;20489;-70
2024/03/14 09:47:14;;;;;;;;;;;;;;;;;;5009797;28;20388;-69
2024/03/14 09:49:40;;;;;;;;;;;;;;;;;;5012277;28;20462;-69
2024/03/14 09:52:06;;;;;;;;;;;;;;;;;;5009251;28;19921;-68
2024/03/14 09:54:31;;;;;;;;;;;;;;;;;;5011400;28;19916;-68
2024/03/14 09:56:57;;;;;;;;;;;;;;;;;;5008032;28;19921;-69
2024/03/14 09:59:22;;;;;;;;;;;;;;;;;;5008905;28;19932;-69
2024/03/14 10:01:48;;;;;;;;;;;;;;;;;;4990115;28;19951;-69
2024/03/14 10:04:14;;;;;;;;;;;;;;;;;;4986517;28;20663;-69
2024/03/14 10:06:40;;;;;;;;;;;;;;;;;;5009973;28;20005;-69
2024/03/14 10:09:11;;;;;;;;;;;;;;;;;;5010682;28;19952;-70
2024/03/14 10:11:39;;;;;;;;;;;;;;;;;;5009753;28;19921;-69
2024/03/14 10:14:06;;;;;;;;;;;;;;;;;;5008571;28;19921;-69
2024/03/14 10:16:32;;;;;;;;;;;;;;;;;;4987096;28;19918;-69
2024/03/14 10:18:58;;;;;;;;;;;;;;;;;;4994053;28;20438;-70
2024/03/14 10:21:24;;;;;;;;;;;;;;;;;;5009715;28;20036;-68
2024/03/14 10:23:49;;;;;;;;;;;;;;;;;;5003080;28;20454;-69
2024/03/14 10:26:14;;;;;;;;;;;;;;;;;;5007989;28;20355;-68
2024/03/14 10:28:40;;;;;;;;;;;;;;;;;;5009331;28;20371;-68
2024/03/14 10:31:08;;;;;;;;;;;;;;;;;;5009517;28;19928;-68
2024/03/14 10:33:33;;;;;;;;;;;;;;;;;;4988347;28;20050;-69
2024/03/14 10:35:58;;;;;;;;;;;;;;;;;;4994378;28;19992;-68
2024/03/14 10:38:25;;;;;;;;;;;;;;;;;;5012367;28;20029;-68
2024/03/14 10:40:51;;;;;;;;;;;;;;;;;;4991746;28;19921;-68
2024/03/14 10:43:20;;;;;;;;;;;;;;;;;;5010835;28;20301;-68
2024/03/14 10:45:52;;;;;;;;;;;;;;;;;;5012848;28;19917;-68
2024/03/14 10:48:17;;;;;;;;;;;;;;;;;;5015263;28;19921;-68
2024/03/14 10:50:43;;;;;;;;;;;;;;;;;;4989652;28;19924;-68
2024/03/14 10:53:08;;;;;;;;;;;;;;;;;;5013278;28;19931;-68
2024/03/14 10:55:33;;;;;;;;;;;;;;;;;;4974512;28;20399;-68
2024/03/14 10:57:59;;;;;;;;;;;;;;;;;;4991588;28;19956;-67
2024/03/14 11:00:24;;;;;;;;;;;;;;;;;;5010575;28;19956;-67
2024/03/14 11:02:50;;;;;;;;;;;;;;;;;;5011818;28;19917;-67
2024/03/14 11:05:17;;;;;;;;;;;;;;;;;;5011252;28;19921;-69
2024/03/14 11:07:43;;;;;;;;;;;;;;;;;;5012297;28;20364;-69
2024/03/14 11:10:09;;;;;;;;;;;;;;;;;;5013565;28;19943;-68
2024/03/14 11:12:35;;;;;;;;;;;;;;;;;;5012904;28;20365;-68
2024/03/14 11:15:00;;;;;;;;;;;;;;;;;;4995705;28;19917;-69
2024/03/14 11:17:28;;;;;;;;;;;;;;;;;;4990126;28;20055;-69
2024/03/14 11:19:54;;;;;;;;;;;;;;;;;;5012762;28;20280;-70
2024/03/14 11:22:21;;;;;;;;;;;;;;;;;;5010720;28;20027;-68
2024/03/14 11:24:47;;;;;;;;;;;;;;;;;;5012066;28;20221;-67
2024/03/14 11:27:13;;;;;;;;;;;;;;;;;;4972894;28;20610;-67
2024/03/14 11:29:39;;;;;;;;;;;;;;;;;;5012519;28;19927;-68
2024/03/14 11:32:04;;;;;;;;;;;;;;;;;;5012281;28;20253;-68
2024/03/14 11:34:29;;;;;;;;;;;;;;;;;;4991104;28;19925;-68
2024/03/14 11:36:54;;;;;;;;;;;;;;;;;;4991521;28;19917;-67
2024/03/14 11:39:26;;;;;;;;;;;;;;;;;;5009152;28;19928;-68
2024/03/14 11:41:51;;;;;;;;;;;;;;;;;;5013556;28;20417;-68
2024/03/14 11:44:17;;;;;;;;;;;;;;;;;;4989010;28;19921;-68
2024/03/14 11:46:42;;;;;;;;;;;;;;;;;;5012003;28;19925;-70
2024/03/14 11:49:11;;;;;;;;;;;;;;;;;;4990748;28;19921;-67
2024/03/14 11:51:41;;;;;;;;;;;;;;;;;;5010321;28;19921;-69
2024/03/14 11:54:07;;;;;;;;;;;;;;;;;;4994506;28;20024;-67
2024/03/14 11:56:34;;;;;;;;;;;;;;;;;;5010724;28;19924;-68
2024/03/14 11:58:59;;;;;;;;;;;;;;;;;;5008571;28;19921;-67
2024/03/14 12:01:24;;;;;;;;;;;;;;;;;;5012353;28;20528;-67
2024/03/14 12:03:51;;;;;;;;;;;;;;;;;;4980076;28;19921;-67
2024/03/14 12:06:17;;;;;;;;;;;;;;;;;;5011026;28;19917;-67
2024/03/14 12:08:42;;;;;;;;;;;;;;;;;;4997837;28;20462;-67
2024/03/14 12:11:08;;;;;;;;;;;;;;;;;;4988774;28;19924;-67
2024/03/14 12:13:34;;;;;;;;;;;;;;;;;;5011073;28;20285;-67
2024/03/14 12:15:59;;;;;;;;;;;;;;;;;;5009792;28;19952;-67
2024/03/14 12:18:25;;;;;;;;;;;;;;;;;;4972436;28;20008;-67
2024/03/14 12:20:50;;;;;;;;;;;;;;;;;;5010138;28;20011;-68
2024/03/14 12:23:16;;;;;;;;;;;;;;;;;;5010918;28;19924;-68
2024/03/14 12:25:42;;;;;;;;;;;;;;;;;;4978710;28;20341;-68
2024/03/14 12:28:09;;;;;;;;;;;;;;;;;;5009765;28;19924;-68
2024/03/14 12:30:38;;;;;;;;;;;;;;;;;;5010950;28;19917;-67
2024/03/14 12:33:03;;;;;;;;;;;;;;;;;;4974329;28;20343;-67
2024/03/14 12:35:28;;;;;;;;;;;;;;;;;;5009007;28;19921;-68
2024/03/14 12:38:01;;;;;;;;;;;;;;;;;;5011015;28;19932;-71
2024/03/14 12:40:26;;;;;;;;;;;;;;;;;;5010690;28;20704;-67
2024/03/14 12:42:53;;;;;;;;;;;;;;;;;;5011415;28;19921;-67
2024/03/14 12:45:19;;;;;;;;;;;;;;;;;;4995517;28;19921;-67
2024/03/14 12:47:44;;;;;;;;;;;;;;;;;;5010514;28;20007;-67
2024/03/14 12:50:10;;;;;;;;;;;;;;;;;;4996796;28;19922;-68
2024/03/14 12:52:35;;;;;;;;;;;;;;;;;;4986863;28;19999;-68
2024/03/14 12:55:00;;;;;;;;;;;;;;;;;;5011220;28;20631;-67
2024/03/14 12:57:26;;;;;;;;;;;;;;;;;;5011716;28;19917;-68
2024/03/14 12:59:53;;;;;;;;;;;;;;;;;;4987365;28;20426;-67
2024/03/14 13:02:21;;;;;;;;;;;;;;;;;;5010883;28;19917;-67
2024/03/14 13:04:47;;;;;;;;;;;;;;;;;;5009855;28;19928;-67
2024/03/14 13:07:12;;;;;;;;;;;;;;;;;;5008074;28;19917;-67
2024/03/14 13:09:38;;;;;;;;;;;;;;;;;;5007832;28;19925;-67
2024/03/14 13:12:03;;;;;;;;;;;;;;;;;;5009738;28;20039;-68
2024/03/14 13:14:29;;;;;;;;;;;;;;;;;;5012047;28;19937;-68
2024/03/14 13:16:54;;;;;;;;;;;;;;;;;;4991523;28;19917;-68
2024/03/14 13:19:22;;;;;;;;;;;;;;;;;;4999659;28;19931;-68
2024/03/14 13:21:48;;;;;;;;;;;;;;;;;;5012140;28;19925;-67
2024/03/14 13:24:13;;;;;;;;;;;;;;;;;;4994564;28;19921;-67
2024/03/14 13:26:41;;;;;;;;;;;;;;;;;;4993803;28;19932;-68
2024/03/14 13:29:12;;;;;;;;;;;;;;;;;;4992262;28;20000;-67
2024/03/14 13:31:37;;;;;;;;;;;;;;;;;;5009757;28;19928;-68
2024/03/14 13:34:03;;;;;;;;;;;;;;;;;;4988710;28;19925;-68
2024/03/14 13:36:36;;;;;;;;;;;;;;;;;;4988423;28;20411;-68
2024/03/14 13:39:05;;;;;;;;;;;;;;;;;;4988050;28;19916;-67
2024/03/14 13:41:30;;;;;;;;;;;;;;;;;;5009413;28;20391;-70
2024/03/14 13:43:56;;;;;;;;;;;;;;;;;;4987647;28;20139;-68
2024/03/14 13:46:22;;;;;;;;;;;;;;;;;;5011022;28;19968;-68
2024/03/14 13:48:47;;;;;;;;;;;;;;;;;;5009111;28;19921;-67
2024/03/14 13:51:12;;;;;;;;;;;;;;;;;;5009054;28;19918;-68
2024/03/14 13:53:39;;;;;;;;;;;;;;;;;;4988479;28;20369;-70
2024/03/14 13:56:13;;;;;;;;;;;;;;;;;;4988765;28;19917;-67
2024/03/14 13:58:38;;;;;;;;;;;;;;;;;;4995695;28;19943;-66
2024/03/14 14:01:18;;;;;;;;;;;;;;;;;;5007081;28;20480;-68
2024/03/14 14:03:44;;;;;;;;;;;;;;;;;;5009679;28;20552;-67
2024/03/14 14:06:12;;;;;;;;;;;;;;;;;;5007699;28;19925;-68
2024/03/14 14:08:40;;;;;;;;;;;;;;;;;;4986790;28;19976;-67
2024/03/14 14:11:05;;;;;;;;;;;;;;;;;;4993204;28;19917;-67
2024/03/14 14:13:31;;;;;;;;;;;;;;;;;;5013526;28;19978;-68
2024/03/14 14:15:59;;;;;;;;;;;;;;;;;;4997498;28;20135;-68
2024/03/14 14:18:24;;;;;;;;;;;;;;;;;;5014185;28;20285;-68
2024/03/14 14:20:52;;;;;;;;;;;;;;;;;;4973584;28;19947;-67
2024/03/14 14:23:18;;;;;;;;;;;;;;;;;;4998057;28;20024;-67
2024/03/14 14:25:45;;;;;;;;;;;;;;;;;;5013927;28;20329;-67
2024/03/14 14:28:13;;;;;;;;;;;;;;;;;;4989663;28;19960;-67
2024/03/14 14:30:41;;;;;;;;;;;;;;;;;;5012938;28;19961;-67
2024/03/14 14:33:09;;;;;;;;;;;;;;;;;;5014115;28;20016;-67
2024/03/14 14:35:36;;;;;;;;;;;;;;;;;;5010670;28;20372;-67
2024/03/14 14:38:03;;;;;;;;;;;;;;;;;;5012582;28;19917;-67
2024/03/14 14:40:31;;;;;;;;;;;;;;;;;;4996860;28;19936;-68
2024/03/14 14:42:57;;;;;;;;;;;;;;;;;;4992118;28;19928;-69
2024/03/14 14:45:23;;;;;;;;;;;;;;;;;;5012368;28;19924;-67
2024/03/14 14:47:51;;;;;;;;;;;;;;;;;;4996300;28;20344;-66
2024/03/14 14:50:17;;;;;;;;;;;;;;;;;;4996931;28;19916;-67
2024/03/14 14:52:42;;;;;;;;;;;;;;;;;;4993931;28;19921;-67
2024/03/14 14:55:12;;;;;;;;;;;;;;;;;;4999198;28;19956;-66
2024/03/14 14:57:37;;;;;;;;;;;;;;;;;;5013101;28;21578;-67
2024/03/14 15:00:02;;;;;;;;;;;;;;;;;;5014558;28;19917;-67
2024/03/14 15:02:30;;;;;;;;;;;;;;;;;;4990921;28;19923;-67
2024/03/14 15:04:59;;;;;;;;;;;;;;;;;;5012774;28;19917;-67
2024/03/14 15:07:27;;;;;;;;;;;;;;;;;;4991678;28;19921;-67
2024/03/14 15:09:52;;;;;;;;;;;;;;;;;;4974209;28;19924;-67
2024/03/14 15:12:17;;;;;;;;;;;;;;;;;;4992021;28;19944;-67
2024/03/14 15:14:48;;;;;;;;;;;;;;;;;;4996398;28;20389;-67
2024/03/14 15:17:16;;;;;;;;;;;;;;;;;;4990906;28;19924;-67
2024/03/14 15:19:44;;;;;;;;;;;;;;;;;;4990146;28;19917;-67
2024/03/14 15:22:10;;;;;;;;;;;;;;;;;;4994051;28;20451;-67
2024/03/14 15:24:36;;;;;;;;;;;;;;;;;;4996677;28;19917;-67
2024/03/14 15:27:02;;;;;;;;;;;;;;;;;;5011739;28;20112;-65
2024/03/14 15:29:30;;;;;;;;;;;;;;;;;;5010690;28;19921;-67
2024/03/14 15:32:01;;;;;;;;;;;;;;;;;;5009052;28;19928;-67
2024/03/14 15:34:26;;;;;;;;;;;;;;;;;;4989624;28;19921;-67
2024/03/14 15:36:53;;;;;;;;;;;;;;;;;;4972569;28;20447;-68
2024/03/14 15:39:20;;;;;;;;;;;;;;;;;;4990217;28;19925;-68
2024/03/14 15:41:45;;;;;;;;;;;;;;;;;;4989468;28;19967;-67
2024/03/14 15:44:13;;;;;;;;;;;;;;;;;;4991642;28;19991;-67
2024/03/14 15:46:41;;;;;;;;;;;;;;;;;;5012139;28;19929;-68
2024/03/14 15:49:09;;;;;;;;;;;;;;;;;;5008092;28;20292;-67
2024/03/14 15:51:42;;;;;;;;;;;;;;;;;;4989454;28;19924;-67
2024/03/14 15:54:08;;;;;;;;;;;;;;;;;;5007676;28;20277;-67
2024/03/14 15:56:35;;;;;;;;;;;;;;;;;;4992774;28;19917;-68
2024/03/14 15:59:05;;;;;;;;;;;;;;;;;;4988444;28;19957;-68
2024/03/14 16:01:38;;;;;;;;;;;;;;;;;;5011113;28;19940;-68
2024/03/14 16:04:03;;;;;;;;;;;;;;;;;;5013168;28;19916;-69
2024/03/14 16:06:35;;;;;;;;;;;;;;;;;;5005522;28;19930;-67
2024/03/14 16:09:01;;;;;;;;;;;;;;;;;;4978926;28;20422;-67
2024/03/14 16:11:26;;;;;;;;;;;;;;;;;;5012266;28;20016;-67
2024/03/14 16:13:53;;;;;;;;;;;;;;;;;;4995377;28;19921;-68
2024/03/14 16:16:22;;;;;;;;;;;;;;;;;;5009940;28;19917;-68
2024/03/14 16:18:48;;;;;;;;;;;;;;;;;;4980375;28;19940;-67
2024/03/14 16:21:16;;;;;;;;;;;;;;;;;;5009133;28;19946;-67
2024/03/14 16:23:42;;;;;;;;;;;;;;;;;;5010362;28;19921;-68
2024/03/14 16:26:10;;;;;;;;;;;;;;;;;;4973265;28;19925;-68
2024/03/14 16:28:38;;;;;;;;;;;;;;;;;;4996065;28;20019;-69
2024/03/14 16:31:06;;;;;;;;;;;;;;;;;;5009363;28;19924;-68
2024/03/14 16:33:33;;;;;;;;;;;;;;;;;;5010664;28;19933;-68
2024/03/14 16:35:58;;;;;;;;;;;;;;;;;;4992941;28;19959;-69
2024/03/14 16:38:23;;;;;;;;;;;;;;;;;;5011243;28;20004;-70
2024/03/14 16:40:49;;;;;;;;;;;;;;;;;;4992611;28;19921;-68
2024/03/14 16:43:14;;;;;;;;;;;;;;;;;;4990090;28;20462;-68